Cardiff-Wales, United Kingdom

6:24 PM BST on September 03, 2015 (GMT +0100)
Cardiff | | Change Station
CLOSE
Current Station
Airport
Location: Cardiff-Wales,
Elevation: 220 ft
Nearby Weather Stations

Elev 220 ft 51.40 °N, 3.34 °W | Updated 4 minutes ago

Clear
Clear
57 °F
Feels Like 57 °F
N
12
Wind Variable Wind from NW

Today
High -- | Low -- °F
--% Chance of Precip.
Yesterday
High -- | Low -- °F
Precip. -- in
6:28 AM 7:55 PM
Waning Gibbous, 68% visible
Pressure 30.04 in
Visibility 6.2 miles
Clouds
Dew Point 46 °F
Humidity 67%
Rainfall 0.00 in
Snow Depth Not available.
UV Not available.
Pollen Not available.
Air Quality Not available.
Flu Activity Not available.
METAR EGFF 031720Z AUTO 32010KT 9999 NCD 14/08 Q1017
Pressure 30.04 in
Visibility 6.2 miles
Clouds
Dew Point 46 °F
Humidity 67%
Rainfall 0.00 in
Snow Depth Not available.
UV Not available.
Pollen Not available.
Air Quality Not available.
Flu Activity Not available.
METAR EGFF 031720Z AUTO 32010KT 9999 NCD 14/08 Q1017

10-Day Weather Forecast

×

Almanac

Astronomy

Sep. 03, 2015 Rise Set
Actual Time
Civil Twilight
Nautical Twilight
Astronomical Twilight
Moon
Length of Visible Light
Length of Day
Tomorrow will be .
, % of the Moon is Illuminated

Today's Extremes

Country Highs Country Lows

Community

WunderPhotos

Upload Photos

1,851,990 photos uploaded!

WunderBlogs® & News

Nearby

Air Quality

  Air Quality AQ Index Pollutant
Not available.

Snow Depth

Station Depth Elevation

Earthquake Activity

City Distance Mag. Time & Date
Minimum magnitude displayed is 2.5.

Coastal Water Temperatures

Place Temperature

Stations

Nearby Weather Stations

Station Location Temp. Windchill Dew Point Humidity Wind Precip. Elev Updated Type